createdAt,value
2018-01-29T00:01:02.078Z,10.50
2018-01-29T00:03:32.689Z,10.50
2018-01-29T00:06:03.149Z,10.50
2018-01-29T00:08:35.425Z,10.50
2018-01-29T00:11:05.883Z,10.50
2018-01-29T00:13:36.452Z,10.50
2018-01-29T00:16:08.501Z,10.40
2018-01-29T00:18:38.913Z,10.50
2018-01-29T00:21:09.606Z,10.50
2018-01-29T00:23:40.482Z,10.50
2018-01-29T00:26:11.987Z,10.50
2018-01-29T00:28:42.794Z,10.50
2018-01-29T00:31:13.133Z,10.50
2018-01-29T00:33:44.026Z,10.40
2018-01-29T00:36:15.545Z,10.50
2018-01-29T00:38:50.732Z,10.40
2018-01-29T00:41:21.779Z,10.50
2018-01-29T00:43:52.158Z,10.50
2018-01-29T00:46:22.997Z,10.50
2018-01-29T00:48:53.345Z,10.50
2018-01-29T00:51:24.027Z,10.50
2018-01-29T00:53:55.329Z,10.60
2018-01-29T00:56:26.417Z,10.60
2018-01-29T00:58:57.170Z,10.50
2018-01-29T01:01:29.236Z,10.50
2018-01-29T01:03:59.996Z,10.50
2018-01-29T01:06:30.489Z,10.50
2018-01-29T01:09:01.173Z,10.50
2018-01-29T01:11:32.626Z,10.50
2018-01-29T01:14:03.498Z,10.50
2018-01-29T01:16:34.389Z,10.60
2018-01-29T01:19:05.897Z,10.60
2018-01-29T01:21:36.656Z,10.60
2018-01-29T01:24:07.427Z,10.50
2018-01-29T01:26:38.442Z,10.50
2018-01-29T01:29:09.550Z,10.50
2018-01-29T01:31:39.902Z,10.50
2018-01-29T01:34:11.608Z,10.50
2018-01-29T01:36:42.672Z,10.50
2018-01-29T01:39:13.899Z,10.50
2018-01-29T01:41:44.774Z,10.40
2018-01-29T01:44:17.043Z,10.40
2018-01-29T01:46:47.670Z,10.40
2018-01-29T01:49:25.389Z,10.40
2018-01-29T01:51:55.934Z,10.40
2018-01-29T01:54:26.254Z,10.40
2018-01-29T01:56:57.034Z,10.40
2018-01-29T01:59:27.788Z,10.40
2018-01-29T02:01:58.972Z,10.40
2018-01-29T02:04:29.951Z,10.30
2018-01-29T02:07:00.447Z,10.40
2018-01-29T02:09:30.950Z,10.40
2018-01-29T02:12:01.699Z,10.30
2018-01-29T02:14:32.223Z,10.40
2018-01-29T02:17:03.533Z,10.40
2018-01-29T02:19:35.137Z,10.40
2018-01-29T02:22:05.514Z,10.40
2018-01-29T02:24:36.986Z,10.40
2018-01-29T02:27:07.574Z,10.40
2018-01-29T02:29:38.171Z,10.40
2018-01-29T02:32:08.542Z,10.30
2018-01-29T02:34:40.027Z,10.30
2018-01-29T02:37:10.818Z,10.30
2018-01-29T02:39:41.478Z,10.20
2018-01-29T02:42:11.874Z,10.20
2018-01-29T02:44:42.878Z,10.20
2018-01-29T02:47:13.406Z,10.20
2018-01-29T02:49:44.278Z,10.20
2018-01-29T02:52:15.371Z,10.10
2018-01-29T02:54:46.234Z,10.20
2018-01-29T02:57:17.150Z,10.10
2018-01-29T02:59:48.099Z,10.10
2018-01-29T03:02:18.682Z,10.10
2018-01-29T03:04:49.563Z,10.00
2018-01-29T03:07:20.216Z,10.10
2018-01-29T03:09:50.921Z,10.00
2018-01-29T03:12:21.500Z,10.00
2018-01-29T03:14:52.539Z,10.00
2018-01-29T03:17:23.821Z,10.00
2018-01-29T03:19:54.967Z,9.90
2018-01-29T03:22:25.711Z,9.90
2018-01-29T03:24:56.426Z,9.90
2018-01-29T03:27:27.402Z,9.90
2018-01-29T03:29:57.981Z,9.90
2018-01-29T03:32:28.678Z,9.90
2018-01-29T03:34:59.581Z,9.90
2018-01-29T03:37:30.369Z,9.90
2018-01-29T03:40:01.932Z,9.90
2018-01-29T03:42:33.826Z,9.90
2018-01-29T03:45:04.546Z,9.90
2018-01-29T03:47:35.314Z,9.90
2018-01-29T03:50:06.278Z,10.00
2018-01-29T03:52:37.653Z,10.00
2018-01-29T03:55:08.315Z,10.00
2018-01-29T03:57:39.164Z,10.00
2018-01-29T04:00:09.851Z,10.00
2018-01-29T04:02:40.358Z,10.00
2018-01-29T04:05:11.794Z,10.00
2018-01-29T04:07:42.447Z,10.00
2018-01-29T04:10:13.095Z,10.00
2018-01-29T04:12:43.714Z,10.00
2018-01-29T04:15:15.459Z,10.00
2018-01-29T04:17:46.082Z,10.00
2018-01-29T04:20:16.537Z,10.00
2018-01-29T04:22:47.265Z,9.90
2018-01-29T04:25:18.251Z,9.90
2018-01-29T04:27:49.194Z,9.90
2018-01-29T04:30:19.839Z,10.00
2018-01-29T04:32:51.149Z,10.00
2018-01-29T04:35:21.717Z,10.00
2018-01-29T04:37:53.999Z,9.90
2018-01-29T04:40:25.326Z,9.90
2018-01-29T04:42:56.869Z,10.00
2018-01-29T04:45:27.486Z,10.00
2018-01-29T04:47:58.175Z,10.00
2018-01-29T04:50:28.669Z,10.00
2018-01-29T04:52:59.537Z,10.00
2018-01-29T04:55:30.378Z,10.00
2018-01-29T04:58:01.362Z,9.90
2018-01-29T05:00:32.249Z,9.90
2018-01-29T05:03:03.383Z,9.80
2018-01-29T05:05:33.816Z,9.80
2018-01-29T05:08:05.454Z,9.90
2018-01-29T05:10:37.145Z,9.90
2018-01-29T05:13:07.922Z,9.90
2018-01-29T05:15:38.866Z,9.90
2018-01-29T05:18:10.020Z,9.90
2018-01-29T05:20:41.233Z,9.90
2018-01-29T05:23:11.801Z,9.90
2018-01-29T05:25:42.440Z,9.80
2018-01-29T05:28:13.898Z,9.80
2018-01-29T05:30:45.225Z,9.80
2018-01-29T05:33:15.601Z,9.80
2018-01-29T05:35:46.653Z,9.80
2018-01-29T05:38:17.563Z,9.80
2018-01-29T05:40:48.949Z,9.80
2018-01-29T05:43:20.638Z,9.80
2018-01-29T05:45:51.778Z,9.80
2018-01-29T05:48:22.455Z,9.80
2018-01-29T05:50:53.243Z,9.80
2018-01-29T05:53:23.864Z,9.80
2018-01-29T05:55:55.919Z,9.80
2018-01-29T05:58:26.875Z,9.80
2018-01-29T06:00:58.105Z,9.90
2018-01-29T06:03:32.622Z,9.90
2018-01-29T06:06:03.335Z,9.90
2018-01-29T06:08:33.907Z,9.90
2018-01-29T06:11:05.050Z,9.90
2018-01-29T06:13:37.301Z,9.90
2018-01-29T06:16:07.861Z,9.90
2018-01-29T06:18:38.221Z,9.90
2018-01-29T06:21:08.539Z,9.90
2018-01-29T06:23:38.916Z,9.90
2018-01-29T06:26:10.589Z,9.90
2018-01-29T06:28:41.727Z,9.90
2018-01-29T06:31:12.171Z,9.90
2018-01-29T06:33:49.159Z,9.90
2018-01-29T06:36:20.974Z,9.90
2018-01-29T06:38:52.080Z,9.90
2018-01-29T06:41:22.770Z,9.80
2018-01-29T06:43:55.397Z,9.90
2018-01-29T06:46:26.773Z,9.90
2018-01-29T06:48:58.145Z,9.90
2018-01-29T06:51:28.509Z,9.80
2018-01-29T06:53:58.853Z,9.90
2018-01-29T06:56:29.613Z,9.90
2018-01-29T06:59:00.914Z,9.90
2018-01-29T07:01:33.472Z,9.90
2018-01-29T07:04:04.247Z,9.90
2018-01-29T07:06:34.902Z,9.80
2018-01-29T07:09:06.378Z,9.80
2018-01-29T07:11:36.750Z,9.80
2018-01-29T07:14:08.991Z,9.80
2018-01-29T07:16:39.466Z,9.80
2018-01-29T07:19:13.026Z,9.80
2018-01-29T07:21:44.259Z,9.80
2018-01-29T07:24:17.664Z,9.80
2018-01-29T07:26:48.564Z,9.80
2018-01-29T07:29:20.581Z,9.80
2018-01-29T07:31:53.169Z,9.80
2018-01-29T07:34:24.160Z,9.80
2018-01-29T07:37:00.401Z,9.80
2018-01-29T07:39:35.928Z,9.80
2018-01-29T07:42:06.499Z,9.80
2018-01-29T07:44:37.326Z,9.80
2018-01-29T07:47:08.175Z,9.80
2018-01-29T07:49:41.274Z,9.80
2018-01-29T07:52:12.421Z,9.80
2018-01-29T07:54:47.975Z,9.80
2018-01-29T07:57:22.675Z,9.80
2018-01-29T07:59:58.913Z,9.80
2018-01-29T08:02:29.623Z,9.80
2018-01-29T08:05:01.008Z,9.80
2018-01-29T08:07:33.183Z,9.80
2018-01-29T08:10:03.563Z,9.80
2018-01-29T08:12:34.202Z,9.80
2018-01-29T08:15:04.995Z,9.90
2018-01-29T08:17:35.446Z,9.90
2018-01-29T08:20:05.738Z,9.90
2018-01-29T08:22:36.392Z,9.90
2018-01-29T08:25:08.995Z,9.90
2018-01-29T08:27:40.504Z,9.80
2018-01-29T08:30:10.926Z,9.80
2018-01-29T08:32:41.672Z,9.90
2018-01-29T08:35:17.461Z,9.80
2018-01-29T08:37:51.710Z,9.70
2018-01-29T08:40:24.587Z,9.70
2018-01-29T08:42:55.415Z,9.70
2018-01-29T08:45:25.864Z,9.70
2018-01-29T08:47:56.247Z,9.70
2018-01-29T08:50:27.554Z,9.60
2018-01-29T08:52:57.916Z,9.60
2018-01-29T08:55:28.675Z,9.60
2018-01-29T08:58:01.464Z,9.60
2018-01-29T09:00:33.745Z,9.60
2018-01-29T09:05:48.947Z,9.70
2018-01-29T09:08:21.239Z,9.70
2018-01-29T09:10:52.394Z,9.70
2018-01-29T09:13:23.955Z,9.60
2018-01-29T09:15:58.828Z,9.60
2018-01-29T09:18:29.504Z,9.60
2018-01-29T09:21:01.774Z,9.60
2018-01-29T09:23:32.949Z,9.60
2018-01-29T09:26:03.597Z,9.60
2018-01-29T09:28:34.876Z,9.60
2018-01-29T09:31:05.878Z,9.50
2018-01-29T09:33:36.519Z,9.50
2018-01-29T09:36:06.962Z,9.60
2018-01-29T09:38:37.683Z,9.60
2018-01-29T09:41:08.450Z,9.60
2018-01-29T09:43:39.038Z,9.70
2018-01-29T09:46:09.464Z,9.70
2018-01-29T09:48:41.948Z,9.60
2018-01-29T09:51:13.733Z,9.50
2018-01-29T09:53:44.922Z,9.50
2018-01-29T09:56:15.562Z,9.50
2018-01-29T09:58:47.379Z,9.50
2018-01-29T10:01:19.009Z,9.60
2018-01-29T10:03:49.606Z,9.70
2018-01-29T10:06:19.953Z,9.60
2018-01-29T10:08:50.687Z,9.50
2018-01-29T10:11:21.144Z,9.50
2018-01-29T10:13:51.541Z,9.50
2018-01-29T10:16:22.200Z,9.50
2018-01-29T10:18:52.807Z,9.40
2018-01-29T10:21:24.487Z,9.40
2018-01-29T10:23:55.114Z,9.40
2018-01-29T10:26:25.480Z,9.60
2018-01-29T10:28:56.110Z,9.50
2018-01-29T10:31:26.937Z,9.40
2018-01-29T10:33:58.169Z,9.30
2018-01-29T10:36:28.839Z,9.30
2018-01-29T10:39:00.062Z,9.30
2018-01-29T10:41:32.596Z,9.20
2018-01-29T10:44:03.334Z,9.20
2018-01-29T10:46:33.872Z,9.20
2018-01-29T10:49:04.692Z,9.00
2018-01-29T10:51:35.904Z,9.00
2018-01-29T10:54:07.469Z,9.00
2018-01-29T10:56:39.218Z,9.10
2018-01-29T10:59:09.953Z,9.00
2018-01-29T11:01:45.187Z,9.00
2018-01-29T11:04:16.085Z,9.00
2018-01-29T11:06:46.573Z,9.20
2018-01-29T11:09:17.193Z,9.10
2018-01-29T11:11:47.958Z,9.10
2018-01-29T11:14:19.151Z,9.10
2018-01-29T11:16:49.626Z,9.10
2018-01-29T11:19:20.242Z,9.10
2018-01-29T11:21:51.803Z,9.10
2018-01-29T11:24:22.209Z,9.10
2018-01-29T11:26:53.663Z,9.10
2018-01-29T11:29:26.150Z,9.10
2018-01-29T11:31:57.382Z,9.10
2018-01-29T11:34:27.810Z,9.10
2018-01-29T11:36:59.891Z,9.10
2018-01-29T11:39:31.669Z,9.10
2018-01-29T11:42:02.126Z,9.00
2018-01-29T11:44:33.341Z,9.10
2018-01-29T11:47:04.149Z,9.10
2018-01-29T11:49:36.125Z,9.00
2018-01-29T11:52:06.914Z,9.00
2018-01-29T11:54:37.663Z,9.00
2018-01-29T11:57:08.045Z,9.00
2018-01-29T11:59:39.022Z,8.90
2018-01-29T12:02:10.233Z,9.00
2018-01-29T12:04:40.613Z,9.00
2018-01-29T12:07:11.368Z,9.00
2018-01-29T12:09:41.960Z,9.00
2018-01-29T12:12:15.394Z,9.00
2018-01-29T12:14:46.249Z,9.00
2018-01-29T12:17:16.733Z,9.00
2018-01-29T12:19:47.095Z,9.00
2018-01-29T12:22:18.025Z,9.10
2018-01-29T12:24:48.939Z,9.10
2018-01-29T12:27:20.383Z,9.10
2018-01-29T12:29:51.750Z,9.00
2018-01-29T12:32:22.409Z,9.00
2018-01-29T12:34:53.045Z,9.10
2018-01-29T12:37:23.806Z,9.00
2018-01-29T12:39:54.453Z,9.10
2018-01-29T12:42:27.978Z,9.00
2018-01-29T12:44:59.292Z,9.00
2018-01-29T12:47:30.062Z,9.00
2018-01-29T12:50:00.759Z,9.00
2018-01-29T12:52:32.456Z,9.00
2018-01-29T12:55:02.837Z,9.00
2018-01-29T12:57:33.659Z,9.00
2018-01-29T13:00:05.682Z,9.00
2018-01-29T13:02:37.341Z,9.00
2018-01-29T13:05:07.790Z,9.00
2018-01-29T13:07:39.029Z,9.00
2018-01-29T13:10:09.939Z,9.00
2018-01-29T13:12:40.363Z,9.00
2018-01-29T13:15:10.737Z,9.00
2018-01-29T13:17:42.315Z,9.20
2018-01-29T13:20:12.723Z,9.00
2018-01-29T13:22:44.113Z,9.00
2018-01-29T13:25:15.455Z,9.10
2018-01-29T13:27:45.825Z,9.10
2018-01-29T13:30:16.189Z,9.10
2018-01-29T13:32:47.525Z,9.10
2018-01-29T13:35:17.914Z,9.20
2018-01-29T13:37:49.446Z,9.10
2018-01-29T13:40:19.982Z,9.10
2018-01-29T13:42:50.628Z,9.10
2018-01-29T13:45:21.320Z,9.10
2018-01-29T13:47:51.711Z,9.00
2018-01-29T13:50:23.154Z,9.10
2018-01-29T13:52:54.672Z,9.00
2018-01-29T13:55:25.317Z,9.00
2018-01-29T13:57:56.314Z,9.00
2018-01-29T14:00:27.407Z,9.00
2018-01-29T14:02:58.913Z,8.90
2018-01-29T14:05:29.438Z,8.90
2018-01-29T14:08:00.296Z,8.90
2018-01-29T14:10:33.117Z,8.90
2018-01-29T14:13:07.089Z,8.90
2018-01-29T14:15:38.953Z,8.90
2018-01-29T14:18:15.053Z,8.90
2018-01-29T14:20:46.657Z,8.90
2018-01-29T14:23:21.029Z,8.90
2018-01-29T14:25:52.417Z,8.90
2018-01-29T14:28:22.774Z,8.90
2018-01-29T14:30:54.181Z,8.80
2018-01-29T14:33:26.706Z,8.80
2018-01-29T14:38:43.498Z,8.80
2018-01-29T14:41:14.075Z,8.80
2018-01-29T14:43:49.816Z,8.80
2018-01-29T14:46:30.510Z,8.80
2018-01-29T14:49:02.911Z,8.80
2018-01-29T14:51:41.166Z,8.80
2018-01-29T14:54:17.970Z,8.80
2018-01-29T14:56:50.296Z,8.80
2018-01-29T14:59:21.020Z,8.80
2018-01-29T15:01:53.697Z,8.70
2018-01-29T15:04:24.373Z,8.70
2018-01-29T15:06:54.918Z,8.70
2018-01-29T15:09:25.353Z,8.60
2018-01-29T15:11:56.159Z,8.50
2018-01-29T15:14:26.892Z,8.40
2018-01-29T15:16:57.831Z,8.40
2018-01-29T15:19:29.298Z,8.40
2018-01-29T15:21:59.790Z,8.40
2018-01-29T15:24:30.390Z,8.40
2018-01-29T15:27:02.051Z,8.30
2018-01-29T15:29:32.425Z,8.30
2018-01-29T15:32:02.993Z,8.10
2018-01-29T15:34:33.403Z,7.90
2018-01-29T15:37:03.825Z,7.80
2018-01-29T15:39:34.567Z,7.80
2018-01-29T15:42:07.538Z,7.70
2018-01-29T15:44:45.875Z,7.60
2018-01-29T15:47:18.409Z,7.50
2018-01-29T15:49:49.825Z,7.40
2018-01-29T15:52:21.222Z,7.30
2018-01-29T15:54:53.069Z,7.30
2018-01-29T15:57:24.146Z,7.30
2018-01-29T15:59:55.182Z,7.30
2018-01-29T16:02:25.765Z,7.30
2018-01-29T16:04:56.298Z,7.30
2018-01-29T16:07:26.882Z,7.30
2018-01-29T16:09:58.092Z,7.30
2018-01-29T16:12:28.479Z,7.30
2018-01-29T16:14:59.473Z,7.20
2018-01-29T16:17:29.857Z,7.10
2018-01-29T16:20:00.187Z,7.00
2018-01-29T16:22:30.928Z,7.00
2018-01-29T16:25:01.280Z,7.00
2018-01-29T16:27:36.989Z,7.00
2018-01-29T16:30:07.746Z,7.00
2018-01-29T16:32:38.124Z,6.90
2018-01-29T16:35:08.490Z,6.80
2018-01-29T16:37:39.164Z,6.70
2018-01-29T16:40:10.367Z,6.70
2018-01-29T16:42:40.694Z,6.70
2018-01-29T16:45:11.614Z,6.70
2018-01-29T16:47:42.087Z,6.70
2018-01-29T16:50:14.150Z,6.60
2018-01-29T16:52:45.754Z,6.50
2018-01-29T16:55:16.216Z,6.50
2018-01-29T16:57:47.921Z,6.40
2018-01-29T17:00:18.306Z,6.40
2018-01-29T17:02:48.739Z,6.40
2018-01-29T17:05:19.513Z,6.30
2018-01-29T17:07:49.958Z,6.30
2018-01-29T17:10:20.309Z,6.20
2018-01-29T17:12:51.037Z,6.20
2018-01-29T17:15:21.666Z,6.10
2018-01-29T17:17:52.089Z,6.10
2018-01-29T17:20:23.597Z,6.00
2018-01-29T17:22:53.913Z,6.00
2018-01-29T17:25:24.265Z,6.00
2018-01-29T17:27:54.926Z,6.00
2018-01-29T17:30:25.345Z,6.00
2018-01-29T17:32:56.569Z,6.00
2018-01-29T17:35:28.101Z,6.00
2018-01-29T17:37:58.437Z,6.00
2018-01-29T17:40:28.879Z,5.90
2018-01-29T17:42:59.532Z,6.10
2018-01-29T17:45:30.030Z,6.00
2018-01-29T17:48:00.516Z,6.10
2018-01-29T17:50:31.362Z,6.10
2018-01-29T17:53:01.889Z,6.10
2018-01-29T17:55:32.617Z,6.10
2018-01-29T17:58:03.349Z,6.10
2018-01-29T18:00:33.747Z,6.10
2018-01-29T18:03:04.692Z,6.00
2018-01-29T18:05:35.125Z,6.00
2018-01-29T18:08:06.249Z,6.00
2018-01-29T18:10:36.865Z,5.90
2018-01-29T18:13:07.342Z,5.90
2018-01-29T18:15:38.001Z,5.90
2018-01-29T18:18:08.411Z,6.00
2018-01-29T18:20:39.291Z,5.90
2018-01-29T18:23:10.491Z,5.90
2018-01-29T18:25:40.872Z,5.80
2018-01-29T18:28:12.290Z,5.90
2018-01-29T18:30:42.705Z,5.80
2018-01-29T18:33:12.990Z,5.70
2018-01-29T18:35:43.631Z,5.80
2018-01-29T18:38:13.950Z,5.70
2018-01-29T18:40:44.330Z,5.80
2018-01-29T18:43:14.990Z,5.70
2018-01-29T18:45:45.339Z,5.80
2018-01-29T18:48:15.705Z,5.70
2018-01-29T18:50:46.363Z,5.70
2018-01-29T18:53:17.630Z,5.70
2018-01-29T18:55:50.997Z,5.70
2018-01-29T18:58:22.354Z,5.70
2018-01-29T19:01:03.062Z,5.60
2018-01-29T19:03:33.716Z,5.60
2018-01-29T19:06:04.953Z,5.60
2018-01-29T19:08:36.796Z,5.60
2018-01-29T19:11:07.519Z,5.50
2018-01-29T19:13:38.007Z,5.50
2018-01-29T19:16:08.365Z,5.60
2018-01-29T19:18:39.324Z,5.60
2018-01-29T19:21:25.775Z,5.60
2018-01-29T19:23:58.836Z,5.60
2018-01-29T19:26:30.805Z,5.60
2018-01-29T19:29:01.139Z,5.60
2018-01-29T19:31:31.802Z,5.70
2018-01-29T19:34:02.113Z,5.70
2018-01-29T19:36:32.437Z,5.90
2018-01-29T19:39:03.205Z,5.90
2018-01-29T19:41:34.421Z,5.90
2018-01-29T19:44:05.107Z,6.00
2018-01-29T19:46:36.549Z,6.00
2018-01-29T19:49:06.922Z,6.10
2018-01-29T19:51:37.391Z,6.10
2018-01-29T19:54:08.038Z,6.10
2018-01-29T19:56:38.846Z,6.20
2018-01-29T19:59:09.148Z,6.10
2018-01-29T20:01:40.684Z,6.20
2018-01-29T20:04:11.920Z,6.10
2018-01-29T20:06:42.317Z,6.10
2018-01-29T20:09:12.708Z,6.20
2018-01-29T20:11:43.507Z,6.10
2018-01-29T20:14:13.865Z,6.10
2018-01-29T20:16:44.210Z,6.10
2018-01-29T20:19:14.882Z,6.10
2018-01-29T20:21:46.019Z,5.90
2018-01-29T20:24:18.514Z,5.90
2018-01-29T20:26:49.206Z,5.90
2018-01-29T20:29:19.568Z,5.80
2018-01-29T20:31:50.237Z,5.80
2018-01-29T20:34:21.763Z,5.90
2018-01-29T20:36:52.123Z,5.90
2018-01-29T20:39:23.309Z,5.90
2018-01-29T20:41:54.474Z,5.90
2018-01-29T20:44:24.873Z,5.90
2018-01-29T20:47:18.067Z,5.90
2018-01-29T20:49:48.837Z,5.90
2018-01-29T20:52:19.295Z,5.80
2018-01-29T20:54:50.013Z,5.90
2018-01-29T20:57:20.782Z,5.90
2018-01-29T20:59:51.492Z,5.80
2018-01-29T21:02:22.905Z,5.80
2018-01-29T21:04:54.687Z,5.80
2018-01-29T21:07:25.905Z,5.80
2018-01-29T21:09:56.491Z,5.80
2018-01-29T21:12:27.708Z,5.90
2018-01-29T21:14:59.095Z,5.90
2018-01-29T21:17:29.997Z,5.80
2018-01-29T21:20:00.433Z,5.90
2018-01-29T21:22:30.821Z,5.90
2018-01-29T21:25:01.266Z,5.90
2018-01-29T21:27:39.786Z,5.90
2018-01-29T21:30:10.333Z,5.80
2018-01-29T21:32:41.670Z,5.80
2018-01-29T21:35:12.355Z,5.80
2018-01-29T21:37:42.715Z,5.80
2018-01-29T21:40:13.062Z,5.70
2018-01-29T21:42:43.678Z,5.70
2018-01-29T21:45:14.053Z,5.80
2018-01-29T21:47:44.462Z,5.80
2018-01-29T21:50:15.105Z,5.70
2018-01-29T21:52:45.458Z,5.80
2018-01-29T21:55:17.664Z,5.80
2018-01-29T21:57:49.863Z,5.70
2018-01-29T22:00:22.622Z,5.60
2018-01-29T22:02:53.121Z,5.60
2018-01-29T22:05:23.517Z,5.60
2018-01-29T22:07:54.606Z,5.60
2018-01-29T22:10:25.313Z,5.60
2018-01-29T22:12:55.684Z,5.60
2018-01-29T22:15:26.281Z,5.60
2018-01-29T22:17:56.847Z,5.60
2018-01-29T22:20:27.242Z,5.50
2018-01-29T22:22:57.631Z,5.60
2018-01-29T22:25:29.102Z,5.40
2018-01-29T22:28:00.296Z,5.50
2018-01-29T22:30:30.978Z,5.50
2018-01-29T22:33:01.874Z,5.60
2018-01-29T22:35:32.361Z,5.60
2018-01-29T22:38:02.954Z,5.60
2018-01-29T22:40:34.193Z,5.50
2018-01-29T22:43:05.782Z,5.10
2018-01-29T22:45:36.613Z,5.10
2018-01-29T22:48:06.950Z,4.90
2018-01-29T22:50:37.602Z,4.90
2018-01-29T22:53:08.210Z,4.90
2018-01-29T22:55:38.748Z,4.80
2018-01-29T22:58:09.447Z,4.90
2018-01-29T23:00:39.774Z,4.90
2018-01-29T23:03:10.249Z,5.00
2018-01-29T23:05:41.035Z,5.00
2018-01-29T23:08:12.285Z,5.00
2018-01-29T23:10:42.837Z,5.00
2018-01-29T23:13:13.649Z,5.10
2018-01-29T23:15:44.396Z,5.00
2018-01-29T23:18:14.971Z,5.10
2018-01-29T23:20:45.421Z,5.20
2018-01-29T23:23:16.017Z,5.30
2018-01-29T23:25:47.392Z,5.20
2018-01-29T23:28:17.808Z,5.30
2018-01-29T23:30:48.195Z,5.30
2018-01-29T23:33:18.890Z,5.30
2018-01-29T23:35:49.489Z,5.30
2018-01-29T23:38:19.872Z,5.30
2018-01-29T23:40:50.318Z,5.20
2018-01-29T23:43:21.925Z,5.20
2018-01-29T23:45:52.359Z,5.20
2018-01-29T23:48:22.679Z,5.10
2018-01-29T23:50:53.933Z,5.10
2018-01-29T23:53:24.860Z,5.20
2018-01-29T23:56:03.040Z,5.20
